sensor_id;sensor_type;location;lat;lon;timestamp;temperature;humidity
14277;DHT22;7222;57.346;12.150;2023-04-25T00:00:52;9.70;99.90
14277;DHT22;7222;57.346;12.150;2023-04-25T00:03:21;9.70;99.90
14277;DHT22;7222;57.346;12.150;2023-04-25T00:05:47;9.60;99.90
14277;DHT22;7222;57.346;12.150;2023-04-25T00:08:15;9.60;99.90
14277;DHT22;7222;57.346;12.150;2023-04-25T00:10:43;9.60;99.90
14277;DHT22;7222;57.346;12.150;2023-04-25T00:13:10;9.60;99.90
14277;DHT22;7222;57.346;12.150;2023-04-25T00:15:37;9.60;99.90
14277;DHT22;7222;57.346;12.150;2023-04-25T00:18:04;9.60;99.90
14277;DHT22;7222;57.346;12.150;2023-04-25T00:20:33;9.50;99.90
14277;DHT22;7222;57.346;12.150;2023-04-25T00:23:01;9.70;99.90
14277;DHT22;7222;57.346;12.150;2023-04-25T00:25:29;9.70;99.90
14277;DHT22;7222;57.346;12.150;2023-04-25T00:27:56;9.70;99.90
14277;DHT22;7222;57.346;12.150;2023-04-25T00:30:23;9.70;99.90
14277;DHT22;7222;57.346;12.150;2023-04-25T00:32:50;9.60;99.90
14277;DHT22;7222;57.346;12.150;2023-04-25T00:35:17;9.60;99.90
14277;DHT22;7222;57.346;12.150;2023-04-25T00:37:46;9.60;99.90
14277;DHT22;7222;57.346;12.150;2023-04-25T00:40:13;9.60;99.90
14277;DHT22;7222;57.346;12.150;2023-04-25T00:42:40;9.70;99.90
14277;DHT22;7222;57.346;12.150;2023-04-25T00:45:12;9.70;99.90
14277;DHT22;7222;57.346;12.150;2023-04-25T00:47:40;9.70;99.90
14277;DHT22;7222;57.346;12.150;2023-04-25T00:50:08;9.80;99.90
14277;DHT22;7222;57.346;12.150;2023-04-25T00:52:35;9.90;99.90
14277;DHT22;7222;57.346;12.150;2023-04-25T00:55:05;9.90;99.90
14277;DHT22;7222;57.346;12.150;2023-04-25T00:57:33;9.90;99.90
14277;DHT22;7222;57.346;12.150;2023-04-25T01:00:01;9.90;99.90
14277;DHT22;7222;57.346;12.150;2023-04-25T01:02:29;9.90;99.90
14277;DHT22;7222;57.346;12.150;2023-04-25T01:04:56;9.90;99.90
14277;DHT22;7222;57.346;12.150;2023-04-25T01:07:24;9.90;99.90
14277;DHT22;7222;57.346;12.150;2023-04-25T01:09:52;9.80;99.90
14277;DHT22;7222;57.346;12.150;2023-04-25T01:12:21;9.80;99.90
14277;DHT22;7222;57.346;12.150;2023-04-25T01:14:48;9.80;99.90
14277;DHT22;7222;57.346;12.150;2023-04-25T01:17:15;9.90;99.90
14277;DHT22;7222;57.346;12.150;2023-04-25T01:19:43;9.80;99.90
14277;DHT22;7222;57.346;12.150;2023-04-25T01:22:13;9.80;99.90
14277;DHT22;7222;57.346;12.150;2023-04-25T01:24:40;9.60;99.90
14277;DHT22;7222;57.346;12.150;2023-04-25T01:27:07;9.70;99.90
14277;DHT22;7222;57.346;12.150;2023-04-25T01:29:36;9.80;99.90
14277;DHT22;7222;57.346;12.150;2023-04-25T01:32:04;9.70;99.90
14277;DHT22;7222;57.346;12.150;2023-04-25T01:34:32;9.70;99.90
14277;DHT22;7222;57.346;12.150;2023-04-25T01:36:59;9.70;99.90
14277;DHT22;7222;57.346;12.150;2023-04-25T01:39:28;9.70;99.90
14277;DHT22;7222;57.346;12.150;2023-04-25T01:41:56;9.70;99.90
14277;DHT22;7222;57.346;12.150;2023-04-25T01:44:23;9.70;99.90
14277;DHT22;7222;57.346;12.150;2023-04-25T01:46:51;9.70;99.90
14277;DHT22;7222;57.346;12.150;2023-04-25T01:49:17;9.60;99.90
14277;DHT22;7222;57.346;12.150;2023-04-25T01:51:44;9.60;99.90
14277;DHT22;7222;57.346;12.150;2023-04-25T01:54:12;9.50;99.90
14277;DHT22;7222;57.346;12.150;2023-04-25T01:56:41;9.50;99.90
14277;DHT22;7222;57.346;12.150;2023-04-25T01:59:08;9.50;99.90
14277;DHT22;7222;57.346;12.150;2023-04-25T02:01:35;9.50;99.90
14277;DHT22;7222;57.346;12.150;2023-04-25T02:04:02;9.50;99.90
14277;DHT22;7222;57.346;12.150;2023-04-25T02:06:29;9.50;99.90
14277;DHT22;7222;57.346;12.150;2023-04-25T02:08:56;9.50;99.90
14277;DHT22;7222;57.346;12.150;2023-04-25T02:11:23;9.40;99.90
14277;DHT22;7222;57.346;12.150;2023-04-25T02:13:52;9.40;99.90
14277;DHT22;7222;57.346;12.150;2023-04-25T02:16:19;9.40;99.90
14277;DHT22;7222;57.346;12.150;2023-04-25T02:18:45;9.30;99.90
14277;DHT22;7222;57.346;12.150;2023-04-25T02:21:12;9.30;99.90
14277;DHT22;7222;57.346;12.150;2023-04-25T02:23:40;9.30;99.90
14277;DHT22;7222;57.346;12.150;2023-04-25T02:26:07;9.30;99.90
14277;DHT22;7222;57.346;12.150;2023-04-25T02:28:34;9.30;99.90
14277;DHT22;7222;57.346;12.150;2023-04-25T02:31:03;9.30;99.90
14277;DHT22;7222;57.346;12.150;2023-04-25T02:33:30;9.30;99.90
14277;DHT22;7222;57.346;12.150;2023-04-25T02:35:57;9.30;99.90
14277;DHT22;7222;57.346;12.150;2023-04-25T02:38:24;9.20;99.90
14277;DHT22;7222;57.346;12.150;2023-04-25T02:40:51;9.30;99.90
14277;DHT22;7222;57.346;12.150;2023-04-25T02:43:18;9.30;99.90
14277;DHT22;7222;57.346;12.150;2023-04-25T02:45:46;9.30;99.90
14277;DHT22;7222;57.346;12.150;2023-04-25T02:48:14;9.30;99.90
14277;DHT22;7222;57.346;12.150;2023-04-25T02:50:41;9.30;99.90
14277;DHT22;7222;57.346;12.150;2023-04-25T02:53:08;9.30;99.90
14277;DHT22;7222;57.346;12.150;2023-04-25T02:55:35;9.20;99.90
14277;DHT22;7222;57.346;12.150;2023-04-25T02:58:02;9.20;99.90
14277;DHT22;7222;57.346;12.150;2023-04-25T03:00:29;9.20;99.90
14277;DHT22;7222;57.346;12.150;2023-04-25T03:02:57;9.20;99.90
14277;DHT22;7222;57.346;12.150;2023-04-25T03:05:25;9.20;99.90
14277;DHT22;7222;57.346;12.150;2023-04-25T03:07:52;9.20;99.90
14277;DHT22;7222;57.346;12.150;2023-04-25T03:10:19;9.20;99.90
14277;DHT22;7222;57.346;12.150;2023-04-25T03:12:46;9.20;99.90
14277;DHT22;7222;57.346;12.150;2023-04-25T03:15:13;9.20;99.90
14277;DHT22;7222;57.346;12.150;2023-04-25T03:17:40;9.20;99.90
14277;DHT22;7222;57.346;12.150;2023-04-25T03:20:08;9.20;99.90
14277;DHT22;7222;57.346;12.150;2023-04-25T03:22:36;9.20;99.90
14277;DHT22;7222;57.346;12.150;2023-04-25T03:25:04;9.20;99.90
14277;DHT22;7222;57.346;12.150;2023-04-25T03:27:31;9.20;99.90
14277;DHT22;7222;57.346;12.150;2023-04-25T03:29:58;9.20;99.90
14277;DHT22;7222;57.346;12.150;2023-04-25T03:32:25;9.20;99.90
14277;DHT22;7222;57.346;12.150;2023-04-25T03:34:52;9.10;99.90
14277;DHT22;7222;57.346;12.150;2023-04-25T03:37:19;9.10;99.90
14277;DHT22;7222;57.346;12.150;2023-04-25T03:39:47;9.10;99.90
14277;DHT22;7222;57.346;12.150;2023-04-25T03:42:14;9.10;99.90
14277;DHT22;7222;57.346;12.150;2023-04-25T03:44:41;9.10;99.90
14277;DHT22;7222;57.346;12.150;2023-04-25T03:47:08;9.10;99.90
14277;DHT22;7222;57.346;12.150;2023-04-25T03:49:35;9.10;99.90
14277;DHT22;7222;57.346;12.150;2023-04-25T03:52:02;9.10;99.90
14277;DHT22;7222;57.346;12.150;2023-04-25T03:54:29;9.10;99.90
14277;DHT22;7222;57.346;12.150;2023-04-25T03:56:57;9.00;99.90
14277;DHT22;7222;57.346;12.150;2023-04-25T03:59:24;9.10;99.90
14277;DHT22;7222;57.346;12.150;2023-04-25T04:01:51;9.00;99.90
14277;DHT22;7222;57.346;12.150;2023-04-25T04:04:18;9.00;99.90
14277;DHT22;7222;57.346;12.150;2023-04-25T04:06:45;9.00;99.90
14277;DHT22;7222;57.346;12.150;2023-04-25T04:09:12;9.00;99.90
14277;DHT22;7222;57.346;12.150;2023-04-25T04:11:39;9.10;99.90
14277;DHT22;7222;57.346;12.150;2023-04-25T04:14:07;9.00;99.90
14277;DHT22;7222;57.346;12.150;2023-04-25T04:16:35;9.00;99.90
14277;DHT22;7222;57.346;12.150;2023-04-25T04:19:02;9.00;99.90
14277;DHT22;7222;57.346;12.150;2023-04-25T04:21:29;9.00;99.90
14277;DHT22;7222;57.346;12.150;2023-04-25T04:23:57;9.00;99.90
14277;DHT22;7222;57.346;12.150;2023-04-25T04:26:25;9.00;99.90
14277;DHT22;7222;57.346;12.150;2023-04-25T04:28:53;9.10;99.90
14277;DHT22;7222;57.346;12.150;2023-04-25T04:31:22;9.10;99.90
14277;DHT22;7222;57.346;12.150;2023-04-25T04:33:49;9.10;99.90
14277;DHT22;7222;57.346;12.150;2023-04-25T04:36:17;9.00;99.90
14277;DHT22;7222;57.346;12.150;2023-04-25T04:38:45;9.00;99.90
14277;DHT22;7222;57.346;12.150;2023-04-25T04:41:12;9.00;99.90
14277;DHT22;7222;57.346;12.150;2023-04-25T04:43:40;9.00;99.90
14277;DHT22;7222;57.346;12.150;2023-04-25T04:46:07;9.00;99.90
14277;DHT22;7222;57.346;12.150;2023-04-25T04:48:37;9.00;99.90
14277;DHT22;7222;57.346;12.150;2023-04-25T04:51:05;8.90;99.90
14277;DHT22;7222;57.346;12.150;2023-04-25T04:53:33;8.90;99.90
14277;DHT22;7222;57.346;12.150;2023-04-25T04:56:00;9.00;99.90
14277;DHT22;7222;57.346;12.150;2023-04-25T04:58:27;9.00;99.90
14277;DHT22;7222;57.346;12.150;2023-04-25T05:00:55;9.00;99.90
14277;DHT22;7222;57.346;12.150;2023-04-25T05:03:22;9.10;99.90
14277;DHT22;7222;57.346;12.150;2023-04-25T05:05:50;9.10;99.90
14277;DHT22;7222;57.346;12.150;2023-04-25T05:08:17;9.00;99.90
14277;DHT22;7222;57.346;12.150;2023-04-25T05:10:44;9.10;99.90
14277;DHT22;7222;57.346;12.150;2023-04-25T05:13:11;9.20;99.90
14277;DHT22;7222;57.346;12.150;2023-04-25T05:15:37;9.10;99.90
14277;DHT22;7222;57.346;12.150;2023-04-25T05:18:04;9.20;99.90
14277;DHT22;7222;57.346;12.150;2023-04-25T05:20:31;9.10;99.90
14277;DHT22;7222;57.346;12.150;2023-04-25T05:23:00;9.20;99.90
14277;DHT22;7222;57.346;12.150;2023-04-25T05:25:27;9.00;99.90
14277;DHT22;7222;57.346;12.150;2023-04-25T05:27:54;9.00;99.90
14277;DHT22;7222;57.346;12.150;2023-04-25T05:30:22;9.00;99.90
14277;DHT22;7222;57.346;12.150;2023-04-25T05:32:49;9.00;99.90
14277;DHT22;7222;57.346;12.150;2023-04-25T05:35:16;9.00;99.90
14277;DHT22;7222;57.346;12.150;2023-04-25T05:37:42;9.10;99.90
14277;DHT22;7222;57.346;12.150;2023-04-25T05:40:11;9.30;99.90
14277;DHT22;7222;57.346;12.150;2023-04-25T05:42:38;9.20;99.90
14277;DHT22;7222;57.346;12.150;2023-04-25T05:45:06;9.30;99.90
14277;DHT22;7222;57.346;12.150;2023-04-25T05:47:33;9.30;99.90
14277;DHT22;7222;57.346;12.150;2023-04-25T05:50:00;9.20;99.90
14277;DHT22;7222;57.346;12.150;2023-04-25T05:52:27;9.10;99.90
14277;DHT22;7222;57.346;12.150;2023-04-25T05:54:54;9.20;99.90
14277;DHT22;7222;57.346;12.150;2023-04-25T05:57:24;9.00;99.90
14277;DHT22;7222;57.346;12.150;2023-04-25T05:59:51;9.00;99.90
14277;DHT22;7222;57.346;12.150;2023-04-25T06:02:18;9.00;99.90
14277;DHT22;7222;57.346;12.150;2023-04-25T06:04:46;8.90;99.90
14277;DHT22;7222;57.346;12.150;2023-04-25T06:07:13;9.00;99.90
14277;DHT22;7222;57.346;12.150;2023-04-25T06:09:39;9.00;99.90
14277;DHT22;7222;57.346;12.150;2023-04-25T06:12:06;9.00;99.90
14277;DHT22;7222;57.346;12.150;2023-04-25T06:14:35;9.10;99.90
14277;DHT22;7222;57.346;12.150;2023-04-25T06:17:02;9.00;99.90
14277;DHT22;7222;57.346;12.150;2023-04-25T06:19:32;8.80;99.90
14277;DHT22;7222;57.346;12.150;2023-04-25T06:21:59;8.80;99.90
14277;DHT22;7222;57.346;12.150;2023-04-25T06:24:26;8.80;99.90
14277;DHT22;7222;57.346;12.150;2023-04-25T06:26:53;8.80;99.90
14277;DHT22;7222;57.346;12.150;2023-04-25T06:29:20;8.60;99.90
14277;DHT22;7222;57.346;12.150;2023-04-25T06:31:49;8.70;99.90
14277;DHT22;7222;57.346;12.150;2023-04-25T06:34:16;8.60;99.90
14277;DHT22;7222;57.346;12.150;2023-04-25T06:36:43;8.70;99.90
14277;DHT22;7222;57.346;12.150;2023-04-25T06:39:10;8.70;99.90
14277;DHT22;7222;57.346;12.150;2023-04-25T06:41:38;8.50;99.90
14277;DHT22;7222;57.346;12.150;2023-04-25T06:44:05;8.60;99.90
14277;DHT22;7222;57.346;12.150;2023-04-25T06:46:31;8.50;99.90
14277;DHT22;7222;57.346;12.150;2023-04-25T06:49:01;8.50;99.90
14277;DHT22;7222;57.346;12.150;2023-04-25T06:51:30;8.50;99.90
14277;DHT22;7222;57.346;12.150;2023-04-25T06:53:57;8.50;99.90
14277;DHT22;7222;57.346;12.150;2023-04-25T06:56:24;8.30;99.90
14277;DHT22;7222;57.346;12.150;2023-04-25T06:58:51;8.50;99.90
14277;DHT22;7222;57.346;12.150;2023-04-25T07:01:18;8.60;99.90
14277;DHT22;7222;57.346;12.150;2023-04-25T07:03:45;8.40;99.90
14277;DHT22;7222;57.346;12.150;2023-04-25T07:06:14;8.50;99.90
14277;DHT22;7222;57.346;12.150;2023-04-25T07:08:41;8.40;99.90
14277;DHT22;7222;57.346;12.150;2023-04-25T07:11:08;8.50;99.90
14277;DHT22;7222;57.346;12.150;2023-04-25T07:13:34;8.40;99.90
14277;DHT22;7222;57.346;12.150;2023-04-25T07:16:02;8.40;99.90
14277;DHT22;7222;57.346;12.150;2023-04-25T07:18:29;8.60;99.90
14277;DHT22;7222;57.346;12.150;2023-04-25T07:20:56;8.60;99.90
14277;DHT22;7222;57.346;12.150;2023-04-25T07:23:24;8.40;99.90
14277;DHT22;7222;57.346;12.150;2023-04-25T07:25:52;8.40;99.90
14277;DHT22;7222;57.346;12.150;2023-04-25T07:28:19;8.50;99.90
14277;DHT22;7222;57.346;12.150;2023-04-25T07:30:46;8.40;99.90
14277;DHT22;7222;57.346;12.150;2023-04-25T07:33:13;8.40;99.90
14277;DHT22;7222;57.346;12.150;2023-04-25T07:35:40;8.40;99.90
14277;DHT22;7222;57.346;12.150;2023-04-25T07:38:06;8.60;99.90
14277;DHT22;7222;57.346;12.150;2023-04-25T07:40:35;8.60;99.90
14277;DHT22;7222;57.346;12.150;2023-04-25T07:43:02;8.80;99.90
14277;DHT22;7222;57.346;12.150;2023-04-25T07:45:29;8.80;99.90
14277;DHT22;7222;57.346;12.150;2023-04-25T07:47:55;8.80;99.90
14277;DHT22;7222;57.346;12.150;2023-04-25T07:50:22;8.60;99.90
14277;DHT22;7222;57.346;12.150;2023-04-25T07:52:50;8.60;99.90
14277;DHT22;7222;57.346;12.150;2023-04-25T07:55:16;8.30;99.90
14277;DHT22;7222;57.346;12.150;2023-04-25T07:57:45;8.30;99.90
14277;DHT22;7222;57.346;12.150;2023-04-25T08:00:13;8.50;99.90
14277;DHT22;7222;57.346;12.150;2023-04-25T08:02:40;8.60;99.90
14277;DHT22;7222;57.346;12.150;2023-04-25T08:05:08;8.60;99.90
14277;DHT22;7222;57.346;12.150;2023-04-25T08:07:37;8.70;99.90
14277;DHT22;7222;57.346;12.150;2023-04-25T08:10:05;8.90;99.90
14277;DHT22;7222;57.346;12.150;2023-04-25T08:12:32;9.10;99.90
14277;DHT22;7222;57.346;12.150;2023-04-25T08:15:01;8.60;99.90
14277;DHT22;7222;57.346;12.150;2023-04-25T08:17:28;8.70;99.90
14277;DHT22;7222;57.346;12.150;2023-04-25T08:19:55;8.70;99.90
14277;DHT22;7222;57.346;12.150;2023-04-25T08:22:22;8.70;99.90
14277;DHT22;7222;57.346;12.150;2023-04-25T08:24:49;8.80;99.90
14277;DHT22;7222;57.346;12.150;2023-04-25T08:27:17;8.70;99.90
14277;DHT22;7222;57.346;12.150;2023-04-25T08:29:46;8.60;99.90
14277;DHT22;7222;57.346;12.150;2023-04-25T08:32:14;8.80;99.90
14277;DHT22;7222;57.346;12.150;2023-04-25T08:34:41;8.60;99.90
14277;DHT22;7222;57.346;12.150;2023-04-25T08:37:09;8.70;99.90
14277;DHT22;7222;57.346;12.150;2023-04-25T08:39:37;9.20;99.90
14277;DHT22;7222;57.346;12.150;2023-04-25T08:42:06;8.90;99.90
14277;DHT22;7222;57.346;12.150;2023-04-25T08:44:33;8.70;99.90
14277;DHT22;7222;57.346;12.150;2023-04-25T08:47:02;9.00;99.90
14277;DHT22;7222;57.346;12.150;2023-04-25T08:49:32;8.80;99.90
14277;DHT22;7222;57.346;12.150;2023-04-25T08:52:00;8.70;99.90
14277;DHT22;7222;57.346;12.150;2023-04-25T08:54:28;8.90;99.90
14277;DHT22;7222;57.346;12.150;2023-04-25T08:56:57;9.20;99.90
14277;DHT22;7222;57.346;12.150;2023-04-25T08:59:25;9.40;99.90
14277;DHT22;7222;57.346;12.150;2023-04-25T09:01:52;9.10;99.90
14277;DHT22;7222;57.346;12.150;2023-04-25T09:04:19;9.20;99.90
14277;DHT22;7222;57.346;12.150;2023-04-25T09:06:48;9.30;99.90
14277;DHT22;7222;57.346;12.150;2023-04-25T09:09:15;9.30;99.90
14277;DHT22;7222;57.346;12.150;2023-04-25T09:11:42;9.20;99.90
14277;DHT22;7222;57.346;12.150;2023-04-25T09:14:13;9.00;99.90
14277;DHT22;7222;57.346;12.150;2023-04-25T09:17:00;8.70;99.90
14277;DHT22;7222;57.346;12.150;2023-04-25T09:19:29;9.00;99.90
14277;DHT22;7222;57.346;12.150;2023-04-25T09:21:59;8.90;99.90
14277;DHT22;7222;57.346;12.150;2023-04-25T09:24:33;9.40;99.90
14277;DHT22;7222;57.346;12.150;2023-04-25T09:27:03;9.50;99.90
14277;DHT22;7222;57.346;12.150;2023-04-25T09:29:31;9.50;99.90
14277;DHT22;7222;57.346;12.150;2023-04-25T09:32:17;9.00;99.90
14277;DHT22;7222;57.346;12.150;2023-04-25T09:34:46;9.50;99.90
14277;DHT22;7222;57.346;12.150;2023-04-25T09:37:19;9.50;99.90
14277;DHT22;7222;57.346;12.150;2023-04-25T09:39:47;9.10;99.90
14277;DHT22;7222;57.346;12.150;2023-04-25T09:42:14;9.60;99.90
14277;DHT22;7222;57.346;12.150;2023-04-25T09:44:43;9.40;99.90
14277;DHT22;7222;57.346;12.150;2023-04-25T09:47:11;9.40;99.90
14277;DHT22;7222;57.346;12.150;2023-04-25T09:49:40;9.20;99.90
14277;DHT22;7222;57.346;12.150;2023-04-25T09:52:09;9.10;99.90
14277;DHT22;7222;57.346;12.150;2023-04-25T09:54:38;9.00;99.90
14277;DHT22;7222;57.346;12.150;2023-04-25T09:57:10;9.40;99.90
14277;DHT22;7222;57.346;12.150;2023-04-25T09:59:39;9.60;99.90
14277;DHT22;7222;57.346;12.150;2023-04-25T10:02:07;9.40;99.90
14277;DHT22;7222;57.346;12.150;2023-04-25T10:04:37;9.50;99.90
14277;DHT22;7222;57.346;12.150;2023-04-25T10:07:06;9.10;99.90
14277;DHT22;7222;57.346;12.150;2023-04-25T10:09:33;9.00;99.90
14277;DHT22;7222;57.346;12.150;2023-04-25T10:12:05;9.70;99.90
14277;DHT22;7222;57.346;12.150;2023-04-25T10:14:33;9.70;99.90
14277;DHT22;7222;57.346;12.150;2023-04-25T10:17:01;9.30;99.90
14277;DHT22;7222;57.346;12.150;2023-04-25T10:19:28;9.00;99.90
14277;DHT22;7222;57.346;12.150;2023-04-25T10:22:02;9.30;99.90
14277;DHT22;7222;57.346;12.150;2023-04-25T10:24:30;9.60;99.90
14277;DHT22;7222;57.346;12.150;2023-04-25T10:26:58;10.00;99.90
14277;DHT22;7222;57.346;12.150;2023-04-25T10:29:27;10.00;99.90
14277;DHT22;7222;57.346;12.150;2023-04-25T10:31:54;10.20;99.90
14277;DHT22;7222;57.346;12.150;2023-04-25T10:34:24;9.40;99.90
14277;DHT22;7222;57.346;12.150;2023-04-25T10:37:04;9.60;99.90
14277;DHT22;7222;57.346;12.150;2023-04-25T10:39:32;10.00;99.90
14277;DHT22;7222;57.346;12.150;2023-04-25T10:42:02;10.20;99.90
14277;DHT22;7222;57.346;12.150;2023-04-25T10:44:31;9.90;99.90
14277;DHT22;7222;57.346;12.150;2023-04-25T10:46:59;9.80;99.90
14277;DHT22;7222;57.346;12.150;2023-04-25T10:49:34;9.80;99.90
14277;DHT22;7222;57.346;12.150;2023-04-25T10:52:19;9.80;99.90
14277;DHT22;7222;57.346;12.150;2023-04-25T10:54:52;10.10;99.90
14277;DHT22;7222;57.346;12.150;2023-04-25T10:57:35;9.80;99.90
14277;DHT22;7222;57.346;12.150;2023-04-25T11:00:11;9.40;99.90
14277;DHT22;7222;57.346;12.150;2023-04-25T11:02:41;9.20;99.90
14277;DHT22;7222;57.346;12.150;2023-04-25T11:05:10;9.50;99.90
14277;DHT22;7222;57.346;12.150;2023-04-25T11:07:49;9.50;99.90
14277;DHT22;7222;57.346;12.150;2023-04-25T11:10:17;9.40;99.90
14277;DHT22;7222;57.346;12.150;2023-04-25T11:12:45;9.90;99.90
14277;DHT22;7222;57.346;12.150;2023-04-25T11:15:14;9.90;99.90
14277;DHT22;7222;57.346;12.150;2023-04-25T11:17:41;9.80;46.10
14277;DHT22;7222;57.346;12.150;2023-04-25T11:20:10;9.90;99.90
14277;DHT22;7222;57.346;12.150;2023-04-25T11:22:39;10.40;1.00
14277;DHT22;7222;57.346;12.150;2023-04-25T11:25:08;10.50;99.90
14277;DHT22;7222;57.346;12.150;2023-04-25T11:27:38;10.00;99.90
14277;DHT22;7222;57.346;12.150;2023-04-25T11:30:15;9.80;99.90
14277;DHT22;7222;57.346;12.150;2023-04-25T11:32:42;10.10;50.40
14277;DHT22;7222;57.346;12.150;2023-04-25T11:35:11;10.10;99.90
14277;DHT22;7222;57.346;12.150;2023-04-25T11:37:39;10.00;99.90
14277;DHT22;7222;57.346;12.150;2023-04-25T11:40:07;10.30;99.90
14277;DHT22;7222;57.346;12.150;2023-04-25T11:42:36;11.40;93.80
14277;DHT22;7222;57.346;12.150;2023-04-25T11:45:05;11.70;1.00
14277;DHT22;7222;57.346;12.150;2023-04-25T11:47:34;11.50;99.90
14277;DHT22;7222;57.346;12.150;2023-04-25T11:50:02;11.30;99.90
14277;DHT22;7222;57.346;12.150;2023-04-25T11:52:38;10.20;99.90
14277;DHT22;7222;57.346;12.150;2023-04-25T11:55:07;10.00;99.90
14277;DHT22;7222;57.346;12.150;2023-04-25T11:57:35;10.30;1.00
14277;DHT22;7222;57.346;12.150;2023-04-25T12:00:08;10.20;1.00
14277;DHT22;7222;57.346;12.150;2023-04-25T12:02:40;9.80;1.00
14277;DHT22;7222;57.346;12.150;2023-04-25T12:05:08;9.80;98.30
14277;DHT22;7222;57.346;12.150;2023-04-25T12:07:35;10.20;99.90
14277;DHT22;7222;57.346;12.150;2023-04-25T12:10:07;9.90;1.00
14277;DHT22;7222;57.346;12.150;2023-04-25T12:12:35;9.90;1.00
14277;DHT22;7222;57.346;12.150;2023-04-25T12:15:10;10.00;1.00
14277;DHT22;7222;57.346;12.150;2023-04-25T12:17:39;10.20;1.00
14277;DHT22;7222;57.346;12.150;2023-04-25T12:20:08;9.80;99.90
14277;DHT22;7222;57.346;12.150;2023-04-25T12:22:35;9.80;99.90
14277;DHT22;7222;57.346;12.150;2023-04-25T12:25:03;10.50;99.90
14277;DHT22;7222;57.346;12.150;2023-04-25T12:27:31;10.50;1.00
14277;DHT22;7222;57.346;12.150;2023-04-25T12:29:59;10.60;99.90
14277;DHT22;7222;57.346;12.150;2023-04-25T12:32:27;11.00;1.00
14277;DHT22;7222;57.346;12.150;2023-04-25T12:34:56;10.80;99.90
14277;DHT22;7222;57.346;12.150;2023-04-25T12:37:23;10.70;99.90
14277;DHT22;7222;57.346;12.150;2023-04-25T12:39:50;10.80;1.00
14277;DHT22;7222;57.346;12.150;2023-04-25T12:42:17;11.00;1.00
14277;DHT22;7222;57.346;12.150;2023-04-25T12:44:44;10.40;87.20
14277;DHT22;7222;57.346;12.150;2023-04-25T12:47:12;10.00;1.00
14277;DHT22;7222;57.346;12.150;2023-04-25T12:49:38;9.50;1.00
14277;DHT22;7222;57.346;12.150;2023-04-25T12:52:08;10.90;99.90
14277;DHT22;7222;57.346;12.150;2023-04-25T12:54:35;10.30;7.60
14277;DHT22;7222;57.346;12.150;2023-04-25T12:57:02;10.10;1.00
14277;DHT22;7222;57.346;12.150;2023-04-25T12:59:30;10.20;1.00
14277;DHT22;7222;57.346;12.150;2023-04-25T13:01:57;11.30;99.90
14277;DHT22;7222;57.346;12.150;2023-04-25T13:04:23;10.90;99.90
14277;DHT22;7222;57.346;12.150;2023-04-25T13:06:51;10.30;1.00
14277;DHT22;7222;57.346;12.150;2023-04-25T13:09:19;10.90;1.00
14277;DHT22;7222;57.346;12.150;2023-04-25T13:11:46;11.60;1.00
14277;DHT22;7222;57.346;12.150;2023-04-25T13:14:13;11.90;99.90
14277;DHT22;7222;57.346;12.150;2023-04-25T13:16:41;10.60;99.90
14277;DHT22;7222;57.346;12.150;2023-04-25T13:19:08;10.20;1.00
14277;DHT22;7222;57.346;12.150;2023-04-25T13:21:37;10.60;1.00
14277;DHT22;7222;57.346;12.150;2023-04-25T13:24:04;10.90;99.90
14277;DHT22;7222;57.346;12.150;2023-04-25T13:26:32;10.90;99.90
14277;DHT22;7222;57.346;12.150;2023-04-25T13:28:59;10.70;93.30
14277;DHT22;7222;57.346;12.150;2023-04-25T13:31:29;10.00;99.90
14277;DHT22;7222;57.346;12.150;2023-04-25T13:33:56;10.00;1.00
14277;DHT22;7222;57.346;12.150;2023-04-25T13:36:23;11.20;1.00
14277;DHT22;7222;57.346;12.150;2023-04-25T13:38:51;10.90;1.00
14277;DHT22;7222;57.346;12.150;2023-04-25T13:41:18;10.50;99.90
14277;DHT22;7222;57.346;12.150;2023-04-25T13:43:47;10.90;1.00
14277;DHT22;7222;57.346;12.150;2023-04-25T13:46:14;10.30;1.00
14277;DHT22;7222;57.346;12.150;2023-04-25T13:48:42;10.40;99.90
14277;DHT22;7222;57.346;12.150;2023-04-25T13:51:14;11.10;1.00
14277;DHT22;7222;57.346;12.150;2023-04-25T13:53:42;11.00;1.00
14277;DHT22;7222;57.346;12.150;2023-04-25T13:56:09;10.30;1.00
14277;DHT22;7222;57.346;12.150;2023-04-25T13:58:37;10.40;99.90
14277;DHT22;7222;57.346;12.150;2023-04-25T14:01:05;10.80;1.00
14277;DHT22;7222;57.346;12.150;2023-04-25T14:03:32;10.90;68.70
14277;DHT22;7222;57.346;12.150;2023-04-25T14:05:59;10.40;1.00
14277;DHT22;7222;57.346;12.150;2023-04-25T14:08:26;9.60;1.00
14277;DHT22;7222;57.346;12.150;2023-04-25T14:10:54;9.30;99.90
14277;DHT22;7222;57.346;12.150;2023-04-25T14:13:21;9.00;77.40
14277;DHT22;7222;57.346;12.150;2023-04-25T14:15:49;9.10;99.90
14277;DHT22;7222;57.346;12.150;2023-04-25T14:18:18;8.90;99.90
14277;DHT22;7222;57.346;12.150;2023-04-25T14:20:45;8.90;99.90
14277;DHT22;7222;57.346;12.150;2023-04-25T14:23:12;8.80;99.90
14277;DHT22;7222;57.346;12.150;2023-04-25T14:25:40;9.00;99.90
14277;DHT22;7222;57.346;12.150;2023-04-25T14:28:07;9.80;99.90
14277;DHT22;7222;57.346;12.150;2023-04-25T14:30:35;10.20;99.90
14277;DHT22;7222;57.346;12.150;2023-04-25T14:33:01;9.30;99.90
14277;DHT22;7222;57.346;12.150;2023-04-25T14:35:30;9.40;99.90
14277;DHT22;7222;57.346;12.150;2023-04-25T14:37:57;9.10;1.00
14277;DHT22;7222;57.346;12.150;2023-04-25T14:40:25;9.40;1.00
14277;DHT22;7222;57.346;12.150;2023-04-25T14:42:52;10.00;99.90
14277;DHT22;7222;57.346;12.150;2023-04-25T14:45:19;9.60;99.90
14277;DHT22;7222;57.346;12.150;2023-04-25T14:47:47;9.20;41.30
14277;DHT22;7222;57.346;12.150;2023-04-25T14:50:13;9.10;99.90
14277;DHT22;7222;57.346;12.150;2023-04-25T14:52:42;9.40;1.00
14277;DHT22;7222;57.346;12.150;2023-04-25T14:55:10;9.40;1.00
14277;DHT22;7222;57.346;12.150;2023-04-25T14:57:37;9.50;99.90
14277;DHT22;7222;57.346;12.150;2023-04-25T15:00:06;9.30;99.90
14277;DHT22;7222;57.346;12.150;2023-04-25T15:02:34;9.20;99.90
14277;DHT22;7222;57.346;12.150;2023-04-25T15:05:01;9.50;99.90
14277;DHT22;7222;57.346;12.150;2023-04-25T15:07:29;9.60;99.90
14277;DHT22;7222;57.346;12.150;2023-04-25T15:09:57;9.80;99.90
14277;DHT22;7222;57.346;12.150;2023-04-25T15:12:24;10.30;99.90
14277;DHT22;7222;57.346;12.150;2023-04-25T15:14:54;11.10;99.90
14277;DHT22;7222;57.346;12.150;2023-04-25T15:17:21;10.10;99.90
14277;DHT22;7222;57.346;12.150;2023-04-25T15:19:48;9.90;99.90
14277;DHT22;7222;57.346;12.150;2023-04-25T15:22:15;10.10;31.00
14277;DHT22;7222;57.346;12.150;2023-04-25T15:24:42;10.40;99.90
14277;DHT22;7222;57.346;12.150;2023-04-25T15:27:11;10.80;1.00
14277;DHT22;7222;57.346;12.150;2023-04-25T15:29:38;10.70;83.80
14277;DHT22;7222;57.346;12.150;2023-04-25T15:32:06;10.40;1.00
14277;DHT22;7222;57.346;12.150;2023-04-25T15:34:33;11.10;99.90
14277;DHT22;7222;57.346;12.150;2023-04-25T15:36:59;10.80;99.90
14277;DHT22;7222;57.346;12.150;2023-04-25T15:39:26;9.90;1.00
14277;DHT22;7222;57.346;12.150;2023-04-25T15:41:53;10.50;1.00
14277;DHT22;7222;57.346;12.150;2023-04-25T15:44:22;9.50;99.90
14277;DHT22;7222;57.346;12.150;2023-04-25T15:46:49;10.30;1.00
14277;DHT22;7222;57.346;12.150;2023-04-25T15:49:15;10.30;1.00